FYKT

Keetmanshoop Airport

Airport
ICAO code
FYKT
IATA Code
KMP
Summary
ICAO Region
AFI
ICAO Territory
Location

Keetmanshoop, IIKaras

Serving
Keetmanshoop
Elevation
3506 ft
Coordinates
26° 32' 15" S , 18° 6' 40" E
KCC
Metar
FYKT 272000Z AUTO 05007KT //// // ////// 19/M01 Q1025

Keetmanshoop Airport is an airport serving Keetmanshoop, a city in the ǁKaras Region of Namibia.

Climatology

Hot, semi-arid/Steppe climate (Köppen climate classification BWh)

Runways

Designator Length Width Surface Rops
18/36 1434 30 GVL No/No
4/22 2316 45 ASP No/No

Airport map

Aerial View

SKYbrary Partners:

Safety knowledge contributed by: